sensor_id;sensor_type;location;lat;lon;timestamp;pressure;altitude;pressure_sealevel;temperature;humidity
27864;BME280;15980;51.092;13.916;2023-01-25T00:05:44;100638.81;;;1.58;99.42
27864;BME280;15980;51.092;13.916;2023-01-25T00:15:44;100639.03;;;1.57;99.24
27864;BME280;15980;51.092;13.916;2023-01-25T00:25:45;100643.03;;;1.54;99.52
27864;BME280;15980;51.092;13.916;2023-01-25T00:35:47;100637.63;;;1.43;98.39
27864;BME280;15980;51.092;13.916;2023-01-25T00:45:47;100638.16;;;1.21;98.32
27864;BME280;15980;51.092;13.916;2023-01-25T00:55:52;100625.63;;;1.50;98.94
27864;BME280;15980;51.092;13.916;2023-01-25T01:06:04;100624.56;;;1.40;99.39
27864;BME280;15980;51.092;13.916;2023-01-25T01:26:43;100587.41;;;1.47;98.09
27864;BME280;15980;51.092;13.916;2023-01-25T01:36:44;100573.88;;;1.58;98.63
27864;BME280;15980;51.092;13.916;2023-01-25T01:46:52;100569.75;;;1.56;98.32
27864;BME280;15980;51.092;13.916;2023-01-25T02:07:54;100545.75;;;1.60;97.68
27864;BME280;15980;51.092;13.916;2023-01-25T02:17:32;100544.56;;;1.67;98.06
27864;BME280;15980;51.092;13.916;2023-01-25T02:27:37;100523.06;;;1.49;98.03
27864;BME280;15980;51.092;13.916;2023-01-25T02:37:39;100507.28;;;1.57;97.78
27864;BME280;15980;51.092;13.916;2023-01-25T02:47:39;100502.00;;;1.51;98.05
27864;BME280;15980;51.092;13.916;2023-01-25T02:57:39;100499.19;;;1.46;97.75
27864;BME280;15980;51.092;13.916;2023-01-25T03:07:40;100498.03;;;1.42;97.95
27864;BME280;15980;51.092;13.916;2023-01-25T03:17:40;100486.59;;;1.51;98.21
27864;BME280;15980;51.092;13.916;2023-01-25T03:27:40;100494.25;;;1.43;97.16
27864;BME280;15980;51.092;13.916;2023-01-25T03:37:40;100487.91;;;1.49;98.36
27864;BME280;15980;51.092;13.916;2023-01-25T03:47:41;100472.16;;;1.46;97.87
27864;BME280;15980;51.092;13.916;2023-01-25T03:57:41;100483.19;;;1.56;98.34
27864;BME280;15980;51.092;13.916;2023-01-25T04:07:41;100476.03;;;1.50;97.87
27864;BME280;15980;51.092;13.916;2023-01-25T04:17:42;100466.41;;;1.42;97.78
27864;BME280;15980;51.092;13.916;2023-01-25T04:27:42;100458.72;;;1.51;98.06
27864;BME280;15980;51.092;13.916;2023-01-25T04:37:42;100465.09;;;1.45;97.79
27864;BME280;15980;51.092;13.916;2023-01-25T04:47:42;100454.97;;;1.52;98.17
27864;BME280;15980;51.092;13.916;2023-01-25T04:57:43;100456.63;;;1.53;98.05
27864;BME280;15980;51.092;13.916;2023-01-25T05:07:43;100448.16;;;1.49;98.19
27864;BME280;15980;51.092;13.916;2023-01-25T05:17:43;100456.63;;;1.53;98.68
27864;BME280;15980;51.092;13.916;2023-01-25T05:27:44;100440.03;;;1.49;98.19
27864;BME280;15980;51.092;13.916;2023-01-25T05:37:44;100431.69;;;1.51;98.66
27864;BME280;15980;51.092;13.916;2023-01-25T05:47:44;100422.66;;;1.45;98.43
27864;BME280;15980;51.092;13.916;2023-01-25T05:57:45;100405.78;;;1.55;98.56
27864;BME280;15980;51.092;13.916;2023-01-25T06:07:45;100410.28;;;1.49;97.32
27864;BME280;15980;51.092;13.916;2023-01-25T06:17:45;100404.88;;;1.49;97.63
27864;BME280;15980;51.092;13.916;2023-01-25T06:27:45;100413.22;;;1.48;97.37
27864;BME280;15980;51.092;13.916;2023-01-25T06:37:46;100406.88;;;1.42;97.38
27864;BME280;15980;51.092;13.916;2023-01-25T06:47:48;100411.28;;;1.32;98.03
27864;BME280;15980;51.092;13.916;2023-01-25T06:57:48;100398.19;;;1.40;98.50
27864;BME280;15980;51.092;13.916;2023-01-25T07:07:48;100392.41;;;1.48;97.96
27864;BME280;15980;51.092;13.916;2023-01-25T07:17:49;100374.63;;;1.52;97.11
27864;BME280;15980;51.092;13.916;2023-01-25T07:27:49;100368.59;;;1.62;97.47
27864;BME280;15980;51.092;13.916;2023-01-25T07:37:49;100359.38;;;1.46;96.59
27864;BME280;15980;51.092;13.916;2023-01-25T07:47:49;100349.09;;;1.60;96.76
27864;BME280;15980;51.092;13.916;2023-01-25T07:57:53;100338.44;;;1.70;96.49
27864;BME280;15980;51.092;13.916;2023-01-25T08:07:53;100335.72;;;1.82;96.43
27864;BME280;15980;51.092;13.916;2023-01-25T08:17:53;100328.59;;;1.64;95.33
27864;BME280;15980;51.092;13.916;2023-01-25T08:27:54;100337.78;;;1.63;94.52
27864;BME280;15980;51.092;13.916;2023-01-25T08:37:54;100324.06;;;1.81;94.78
27864;BME280;15980;51.092;13.916;2023-01-25T08:47:54;100319.75;;;1.97;94.36
27864;BME280;15980;51.092;13.916;2023-01-25T08:57:54;100319.25;;;2.00;93.45
27864;BME280;15980;51.092;13.916;2023-01-25T09:07:55;100316.47;;;1.95;93.29
27864;BME280;15980;51.092;13.916;2023-01-25T09:17:56;100303.00;;;1.83;92.75
27864;BME280;15980;51.092;13.916;2023-01-25T09:27:56;100289.97;;;2.14;93.43
27864;BME280;15980;51.092;13.916;2023-01-25T09:37:56;100291.78;;;2.25;93.29
27864;BME280;15980;51.092;13.916;2023-01-25T09:58:19;100280.13;;;2.08;92.56
27864;BME280;15980;51.092;13.916;2023-01-25T10:08:51;100272.25;;;2.06;92.43
27864;BME280;15980;51.092;13.916;2023-01-25T10:29:21;100262.56;;;2.27;91.80
27864;BME280;15980;51.092;13.916;2023-01-25T10:39:22;100247.97;;;2.28;91.50
27864;BME280;15980;51.092;13.916;2023-01-25T10:59:29;100212.09;;;2.60;90.83
27864;BME280;15980;51.092;13.916;2023-01-25T11:09:33;100192.78;;;2.73;89.74
27864;BME280;15980;51.092;13.916;2023-01-25T11:19:38;100184.84;;;2.66;89.71
27864;BME280;15980;51.092;13.916;2023-01-25T11:29:39;100166.78;;;2.55;90.13
27864;BME280;15980;51.092;13.916;2023-01-25T11:39:49;100152.69;;;2.53;91.73
27864;BME280;15980;51.092;13.916;2023-01-25T11:50:27;100129.97;;;2.59;89.89
27864;BME280;15980;51.092;13.916;2023-01-25T12:21:30;100068.38;;;2.71;89.81
27864;BME280;15980;51.092;13.916;2023-01-25T12:42:15;100033.91;;;2.67;90.38
27864;BME280;15980;51.092;13.916;2023-01-25T13:02:36;100018.53;;;2.50;90.45
27864;BME280;15980;51.092;13.916;2023-01-25T13:12:58;99999.94;;;2.32;91.11
27864;BME280;15980;51.092;13.916;2023-01-25T13:23:03;99992.06;;;2.09;90.81
27864;BME280;15980;51.092;13.916;2023-01-25T13:33:05;99972.25;;;2.25;91.99
27864;BME280;15980;51.092;13.916;2023-01-25T14:03:16;99939.88;;;2.13;93.05
27864;BME280;15980;51.092;13.916;2023-01-25T14:13:17;99929.50;;;2.05;93.88
27864;BME280;15980;51.092;13.916;2023-01-25T14:23:28;99923.41;;;1.93;93.28
27864;BME280;15980;51.092;13.916;2023-01-25T14:33:31;99919.78;;;1.82;92.64
27864;BME280;15980;51.092;13.916;2023-01-25T14:43:35;99905.50;;;1.65;93.28
27864;BME280;15980;51.092;13.916;2023-01-25T14:53:38;99888.78;;;1.46;95.00
27864;BME280;15980;51.092;13.916;2023-01-25T15:03:42;99871.66;;;1.63;95.44
27864;BME280;15980;51.092;13.916;2023-01-25T15:13:43;99851.63;;;1.64;96.06
27864;BME280;15980;51.092;13.916;2023-01-25T15:23:45;99831.44;;;1.71;95.20
27864;BME280;15980;51.092;13.916;2023-01-25T15:33:46;99830.75;;;1.59;95.12
27864;BME280;15980;51.092;13.916;2023-01-25T15:43:47;99809.94;;;1.60;95.32
27864;BME280;15980;51.092;13.916;2023-01-25T15:53:48;99805.28;;;1.55;95.04
27864;BME280;15980;51.092;13.916;2023-01-25T16:03:48;99799.00;;;1.49;95.05
27864;BME280;15980;51.092;13.916;2023-01-25T16:13:48;99794.88;;;1.42;95.06
27864;BME280;15980;51.092;13.916;2023-01-25T16:23:48;99777.63;;;1.48;95.36
27864;BME280;15980;51.092;13.916;2023-01-25T16:33:49;99765.22;;;1.52;95.69
27864;BME280;15980;51.092;13.916;2023-01-25T16:43:49;99746.84;;;1.54;95.86
27864;BME280;15980;51.092;13.916;2023-01-25T16:53:52;99734.16;;;1.54;95.92
27864;BME280;15980;51.092;13.916;2023-01-25T17:03:54;99730.94;;;1.57;96.30
27864;BME280;15980;51.092;13.916;2023-01-25T17:13:56;99709.38;;;1.36;94.78
27864;BME280;15980;51.092;13.916;2023-01-25T17:23:58;99703.31;;;1.29;96.39
27864;BME280;15980;51.092;13.916;2023-01-25T17:34:04;99688.00;;;1.34;97.11
27864;BME280;15980;51.092;13.916;2023-01-25T17:44:05;99686.63;;;1.32;96.12
27864;BME280;15980;51.092;13.916;2023-01-25T17:54:05;99675.22;;;1.30;97.56
27864;BME280;15980;51.092;13.916;2023-01-25T18:04:06;99677.00;;;1.46;96.56
27864;BME280;15980;51.092;13.916;2023-01-25T18:14:09;99657.53;;;1.44;96.73
27864;BME280;15980;51.092;13.916;2023-01-25T18:34:13;99653.50;;;1.46;95.54
27864;BME280;15980;51.092;13.916;2023-01-25T18:44:14;99642.19;;;1.54;96.01
27864;BME280;15980;51.092;13.916;2023-01-25T18:54:14;99624.28;;;1.48;95.63
27864;BME280;15980;51.092;13.916;2023-01-25T19:04:14;99616.91;;;1.39;95.26
27864;BME280;15980;51.092;13.916;2023-01-25T19:14:14;99600.03;;;1.26;95.96
27864;BME280;15980;51.092;13.916;2023-01-25T19:24:15;99572.06;;;1.43;96.46
27864;BME280;15980;51.092;13.916;2023-01-25T19:34:16;99562.81;;;1.34;96.51
27864;BME280;15980;51.092;13.916;2023-01-25T19:44:16;99552.38;;;1.52;96.72
27864;BME280;15980;51.092;13.916;2023-01-25T19:54:16;99541.00;;;1.50;95.89
27864;BME280;15980;51.092;13.916;2023-01-25T20:04:21;99539.13;;;1.51;96.10
27864;BME280;15980;51.092;13.916;2023-01-25T20:14:22;99541.50;;;1.42;95.82
27864;BME280;15980;51.092;13.916;2023-01-25T20:24:22;99533.13;;;1.44;96.27
27864;BME280;15980;51.092;13.916;2023-01-25T20:34:23;99509.28;;;1.36;96.30
27864;BME280;15980;51.092;13.916;2023-01-25T20:44:23;99516.13;;;1.11;96.34
27864;BME280;15980;51.092;13.916;2023-01-25T20:54:23;99501.53;;;1.12;98.22
27864;BME280;15980;51.092;13.916;2023-01-25T21:04:24;99485.22;;;1.34;97.32
27864;BME280;15980;51.092;13.916;2023-01-25T21:14:25;99480.00;;;1.27;95.57
27864;BME280;15980;51.092;13.916;2023-01-25T21:24:25;99452.47;;;1.31;97.02
27864;BME280;15980;51.092;13.916;2023-01-25T21:34:26;99455.41;;;1.29;96.37
27864;BME280;15980;51.092;13.916;2023-01-25T21:44:26;99442.72;;;1.30;96.95
27864;BME280;15980;51.092;13.916;2023-01-25T21:54:31;99455.78;;;1.43;96.62
27864;BME280;15980;51.092;13.916;2023-01-25T22:04:31;99450.16;;;1.49;96.37
27864;BME280;15980;51.092;13.916;2023-01-25T22:14:32;99441.78;;;1.56;96.57
27864;BME280;15980;51.092;13.916;2023-01-25T22:24:32;99423.38;;;1.53;95.88
27864;BME280;15980;51.092;13.916;2023-01-25T22:34:32;99408.41;;;1.30;95.11
27864;BME280;15980;51.092;13.916;2023-01-25T22:44:33;99402.75;;;1.32;96.14
27864;BME280;15980;51.092;13.916;2023-01-25T22:54:33;99396.19;;;1.27;96.56
27864;BME280;15980;51.092;13.916;2023-01-25T23:04:33;99384.97;;;1.46;96.94
27864;BME280;15980;51.092;13.916;2023-01-25T23:14:34;99379.81;;;1.49;96.07
27864;BME280;15980;51.092;13.916;2023-01-25T23:24:34;99370.38;;;1.52;95.56
27864;BME280;15980;51.092;13.916;2023-01-25T23:34:34;99349.78;;;1.41;94.37
27864;BME280;15980;51.092;13.916;2023-01-25T23:44:35;99343.53;;;1.30;95.63
27864;BME280;15980;51.092;13.916;2023-01-25T23:54:35;99331.91;;;1.35;94.78
